createdAt,value
2023-05-02T00:01:05.258Z,11.05
2023-05-02T00:03:34.915Z,11.06
2023-05-02T00:06:03.730Z,10.93
2023-05-02T00:08:33.011Z,10.89
2023-05-02T00:11:03.636Z,10.91
2023-05-02T00:17:59.100Z,10.58
2023-05-02T00:20:28.478Z,10.50
2023-05-02T00:27:09.571Z,10.05
2023-05-02T00:29:39.284Z,10.01
2023-05-02T00:36:28.895Z,9.82
2023-05-02T00:43:11.517Z,9.85
2023-05-02T00:45:42.366Z,9.87
2023-05-02T00:57:14.792Z,9.86
2023-05-02T00:59:44.293Z,9.86
2023-05-02T01:02:36.141Z,9.67
2023-05-02T01:05:13.502Z,9.65
2023-05-02T01:12:04.944Z,9.62
2023-05-02T01:14:37.110Z,9.62
2023-05-02T01:17:09.683Z,9.59
2023-05-02T01:24:05.200Z,9.59
2023-05-02T01:26:38.305Z,9.50
2023-05-02T01:33:30.673Z,9.56
2023-05-02T01:35:59.970Z,9.46
2023-05-02T01:42:47.524Z,9.53
2023-05-02T01:45:17.336Z,9.61
2023-05-02T01:47:47.115Z,9.47
2023-05-02T01:59:21.321Z,9.04
2023-05-02T02:01:52.457Z,9.14
2023-05-02T02:08:40.219Z,9.09
2023-05-02T02:11:11.767Z,9.19
2023-05-02T02:18:12.096Z,9.25
2023-05-02T02:20:44.588Z,9.30
2023-05-02T02:23:14.390Z,9.33
2023-05-02T02:30:02.854Z,9.27
2023-05-02T02:32:32.331Z,9.27
2023-05-02T02:39:27.407Z,9.14
2023-05-02T02:42:05.002Z,9.16
2023-05-02T02:49:00.122Z,9.30
2023-05-02T02:51:34.952Z,9.29
2023-05-02T02:54:23.033Z,9.30
2023-05-02T02:57:02.530Z,9.26
2023-05-02T03:03:53.826Z,9.15
2023-05-02T03:10:29.434Z,9.19
2023-05-02T03:13:01.606Z,9.16
2023-05-02T03:19:49.461Z,9.15
2023-05-02T03:22:18.682Z,9.13
2023-05-02T03:24:48.053Z,9.04
2023-05-02T03:27:17.458Z,9.17
2023-05-02T03:29:48.090Z,9.19
2023-05-02T03:32:17.391Z,9.38
2023-05-02T03:34:46.466Z,9.55
2023-05-02T03:37:15.885Z,9.42
2023-05-02T03:39:44.777Z,9.44
2023-05-02T03:42:14.379Z,9.46
2023-05-02T03:44:43.470Z,9.53
2023-05-02T03:51:41.060Z,9.45
2023-05-02T03:54:10.465Z,9.36
2023-05-02T04:01:04.363Z,9.48
2023-05-02T04:03:33.980Z,9.49
2023-05-02T04:10:29.099Z,9.70
2023-05-02T04:12:58.397Z,9.88
2023-05-02T04:15:28.003Z,9.99
2023-05-02T04:17:57.340Z,9.95
2023-05-02T04:20:26.505Z,9.88
2023-05-02T04:22:55.698Z,9.90
2023-05-02T04:25:24.569Z,10.00
2023-05-02T04:27:55.634Z,10.08
2023-05-02T04:30:26.048Z,9.97
2023-05-02T04:32:55.420Z,10.08
2023-05-02T04:35:24.751Z,10.19
2023-05-02T04:37:54.048Z,10.27
2023-05-02T04:40:23.247Z,10.31
2023-05-02T04:47:00.246Z,10.42
2023-05-02T04:49:29.963Z,10.39
2023-05-02T05:01:04.110Z,10.56
2023-05-02T05:03:35.978Z,10.50
2023-05-02T05:06:05.619Z,10.40
2023-05-02T05:08:34.986Z,10.60
2023-05-02T05:11:05.505Z,10.53
2023-05-02T05:13:34.928Z,10.38
2023-05-02T05:16:04.386Z,10.37
2023-05-02T05:18:41.109Z,10.80
2023-05-02T05:21:11.021Z,10.78
2023-05-02T05:23:40.833Z,11.09
2023-05-02T05:26:15.861Z,11.01
2023-05-02T05:28:45.683Z,10.88
2023-05-02T05:31:17.823Z,11.12
2023-05-02T05:33:48.703Z,11.13
2023-05-02T05:36:18.892Z,11.10
2023-05-02T05:38:48.286Z,11.17
2023-05-02T05:41:17.893Z,11.38
2023-05-02T05:43:47.397Z,11.74
2023-05-02T05:46:17.629Z,11.79
2023-05-02T05:48:48.455Z,11.79
2023-05-02T05:51:17.959Z,11.68
2023-05-02T05:53:49.302Z,11.91
2023-05-02T05:56:19.424Z,11.99
2023-05-02T06:03:01.881Z,11.87
2023-05-02T06:05:32.896Z,11.89
2023-05-02T06:12:21.878Z,11.99
2023-05-02T06:14:52.932Z,12.22
2023-05-02T06:21:42.210Z,12.12
2023-05-02T06:28:24.132Z,12.34
2023-05-02T06:31:01.617Z,12.46
2023-05-02T06:37:46.315Z,12.83
2023-05-02T06:40:16.820Z,12.90
2023-05-02T06:42:47.271Z,12.67
2023-05-02T06:45:17.895Z,12.67
2023-05-02T06:47:48.035Z,12.71
2023-05-02T06:50:19.964Z,12.58
2023-05-02T06:52:51.216Z,12.62
2023-05-02T06:55:22.165Z,12.73
2023-05-02T06:57:53.184Z,12.75
2023-05-02T07:00:24.376Z,12.84
2023-05-02T07:02:54.419Z,13.00
2023-05-02T07:05:24.982Z,12.99
2023-05-02T07:07:57.546Z,12.95
2023-05-02T07:10:28.811Z,13.39
2023-05-02T07:13:01.778Z,13.64
2023-05-02T07:15:33.451Z,13.60
2023-05-02T07:18:04.832Z,13.67
2023-05-02T07:20:36.040Z,13.65
2023-05-02T07:23:07.075Z,13.65
2023-05-02T07:25:36.972Z,13.88
2023-05-02T07:28:06.816Z,13.75
2023-05-02T07:30:36.187Z,13.66
2023-05-02T07:33:05.972Z,13.73
2023-05-02T07:35:35.401Z,13.66
2023-05-02T07:38:06.763Z,13.51
2023-05-02T07:40:36.046Z,13.37
2023-05-02T07:43:05.452Z,13.26
2023-05-02T07:45:36.223Z,13.31
2023-05-02T07:48:09.516Z,13.17
2023-05-02T07:54:48.948Z,13.32
2023-05-02T07:57:20.243Z,13.17
2023-05-02T08:04:09.224Z,13.66
2023-05-02T08:06:38.733Z,13.99
2023-05-02T08:16:25.261Z,14.54
2023-05-02T08:18:55.430Z,14.91
2023-05-02T08:21:28.216Z,15.19
2023-05-02T08:24:00.291Z,15.02
2023-05-02T08:26:29.680Z,14.61
2023-05-02T08:28:58.570Z,14.74
2023-05-02T08:31:29.462Z,14.58
2023-05-02T08:33:58.703Z,14.33
2023-05-02T08:36:29.243Z,14.77
2023-05-02T08:38:58.440Z,15.03
2023-05-02T08:41:28.136Z,14.84
2023-05-02T08:43:58.870Z,14.94
2023-05-02T08:46:31.279Z,15.10
2023-05-02T08:49:01.382Z,14.95
2023-05-02T08:51:33.194Z,15.16
2023-05-02T08:54:04.458Z,15.34
2023-05-02T08:56:35.193Z,15.23
2023-05-02T08:59:04.900Z,15.33
2023-05-02T09:01:35.619Z,15.57
2023-05-02T09:04:05.729Z,15.51
2023-05-02T09:10:47.865Z,15.88
2023-05-02T09:13:31.202Z,15.72
2023-05-02T09:20:19.881Z,16.38
2023-05-02T09:22:53.503Z,16.51
2023-05-02T09:29:41.237Z,16.70
2023-05-02T09:32:10.523Z,16.55
2023-05-02T09:34:40.246Z,16.43
2023-05-02T09:37:13.117Z,16.25
2023-05-02T09:39:42.536Z,15.85
2023-05-02T09:42:11.824Z,15.64
2023-05-02T09:44:41.235Z,15.43
2023-05-02T09:47:10.937Z,15.20
2023-05-02T09:49:45.662Z,15.31
2023-05-02T09:52:17.942Z,15.44
2023-05-02T09:54:48.351Z,15.65
2023-05-02T09:57:17.664Z,16.04
2023-05-02T09:59:57.101Z,15.99
2023-05-02T10:02:27.249Z,16.00
2023-05-02T10:04:59.378Z,15.94
2023-05-02T10:07:30.529Z,15.62
2023-05-02T10:10:00.946Z,15.65
2023-05-02T10:12:32.294Z,15.67
2023-05-02T10:15:05.689Z,15.33
2023-05-02T10:17:42.873Z,14.93
2023-05-02T10:20:14.538Z,15.22
2023-05-02T10:22:50.173Z,14.88
2023-05-02T10:25:19.673Z,14.80
2023-05-02T10:27:49.691Z,14.98
2023-05-02T10:30:19.806Z,14.98
2023-05-02T10:32:50.345Z,14.78
2023-05-02T10:35:20.766Z,14.82
2023-05-02T10:37:52.619Z,14.67
2023-05-02T10:40:21.917Z,14.68
2023-05-02T10:42:53.369Z,14.61
2023-05-02T10:45:37.951Z,14.60
2023-05-02T10:48:17.262Z,14.61
2023-05-02T10:50:48.201Z,14.31
2023-05-02T10:53:33.978Z,13.99
2023-05-02T11:00:26.557Z,13.81
2023-05-02T11:07:20.651Z,13.64
2023-05-02T11:09:51.279Z,13.56
2023-05-02T11:17:12.529Z,13.22
2023-05-02T11:20:30.252Z,13.46
2023-05-02T11:27:43.846Z,13.59
2023-05-02T11:30:14.231Z,13.71
2023-05-02T11:37:03.318Z,13.57
2023-05-02T11:39:33.040Z,13.25
2023-05-02T11:46:28.807Z,13.03
2023-05-02T11:53:13.363Z,13.00
2023-05-02T11:55:49.837Z,12.99
2023-05-02T12:02:40.843Z,13.04
2023-05-02T12:05:11.470Z,12.93
2023-05-02T12:11:54.337Z,12.52
2023-05-02T12:18:52.143Z,12.70
2023-05-02T12:21:21.230Z,12.77
2023-05-02T12:28:10.718Z,13.14
2023-05-02T12:30:41.968Z,13.39
2023-05-02T12:36:38.016Z,13.90
2023-05-02T12:43:25.355Z,14.48
2023-05-02T12:46:11.646Z,14.26
2023-05-02T12:53:01.657Z,14.18
2023-05-02T13:04:18.954Z,13.76
2023-05-02T13:06:48.501Z,13.72
2023-05-02T13:13:43.456Z,13.72
2023-05-02T13:20:30.701Z,13.72
2023-05-02T13:23:00.005Z,13.76
2023-05-02T13:29:55.440Z,14.26
2023-05-02T13:32:24.554Z,14.33
2023-05-02T13:39:06.144Z,14.75
2023-05-02T13:46:01.508Z,14.96
2023-05-02T13:48:33.238Z,14.96
2023-05-02T13:55:16.087Z,14.39
2023-05-02T13:57:46.086Z,13.91
2023-05-02T14:00:16.616Z,13.59
2023-05-02T14:02:48.742Z,13.21
2023-05-02T14:05:18.268Z,13.04
2023-05-02T14:07:47.488Z,13.00
2023-05-02T14:10:17.222Z,12.81
2023-05-02T14:12:46.491Z,12.78
2023-05-02T14:15:15.667Z,12.70
2023-05-02T14:17:45.628Z,12.47
2023-05-02T14:20:16.760Z,12.57
2023-05-02T14:26:58.970Z,12.51
2023-05-02T14:29:28.172Z,12.63
2023-05-02T14:36:06.395Z,12.85
2023-05-02T14:38:38.058Z,12.71
2023-05-02T14:41:15.957Z,12.87
2023-05-02T14:43:45.562Z,13.17
2023-05-02T14:46:14.883Z,13.36
2023-05-02T14:48:44.358Z,13.38
2023-05-02T14:51:15.280Z,13.51
2023-05-02T14:53:44.493Z,13.38
2023-05-02T14:56:18.703Z,13.23
2023-05-02T15:07:51.854Z,13.33
2023-05-02T15:10:22.685Z,13.52
2023-05-02T15:17:10.234Z,13.04
2023-05-02T15:19:39.434Z,13.08
2023-05-02T15:22:08.532Z,12.96
2023-05-02T15:24:39.247Z,12.94
2023-05-02T15:27:09.996Z,12.90
2023-05-02T15:29:39.807Z,12.97
2023-05-02T15:32:09.513Z,12.97
2023-05-02T15:38:51.958Z,12.94
2023-05-02T15:41:22.983Z,12.95
2023-05-02T15:48:11.066Z,13.15
2023-05-02T15:50:40.446Z,13.19
2023-05-02T15:57:29.748Z,13.25
2023-05-02T15:59:58.868Z,13.27
2023-05-02T16:02:28.463Z,13.08
2023-05-02T16:04:57.939Z,13.07
2023-05-02T16:07:27.246Z,13.04
2023-05-02T16:14:11.611Z,13.14
2023-05-02T16:16:41.806Z,13.29
2023-05-02T16:23:36.156Z,13.13
2023-05-02T16:26:05.241Z,12.78
2023-05-02T16:32:55.527Z,13.19
2023-05-02T16:35:24.757Z,13.14
2023-05-02T16:37:54.176Z,13.11
2023-05-02T16:40:23.464Z,13.13
2023-05-02T16:42:52.558Z,12.72
2023-05-02T16:45:22.168Z,12.58
2023-05-02T16:47:58.266Z,12.51
2023-05-02T16:54:35.634Z,12.43
2023-05-02T16:57:04.924Z,12.34
2023-05-02T17:07:00.276Z,12.40
2023-05-02T17:13:44.048Z,12.07
2023-05-02T17:16:13.371Z,12.17
2023-05-02T17:18:42.744Z,12.23
2023-05-02T17:21:11.956Z,12.22
2023-05-02T17:23:41.436Z,12.17
2023-05-02T17:26:14.735Z,12.18
2023-05-02T17:28:46.291Z,12.18
2023-05-02T17:35:23.396Z,12.33
2023-05-02T17:37:52.996Z,12.35
2023-05-02T17:44:36.567Z,12.25
2023-05-02T17:47:06.690Z,12.27
2023-05-02T17:53:53.900Z,11.90
2023-05-02T17:56:29.462Z,11.98
2023-05-02T17:58:59.275Z,11.93
2023-05-02T18:10:25.252Z,11.70
2023-05-02T18:12:54.862Z,11.50
2023-05-02T18:19:42.817Z,11.44
2023-05-02T18:22:12.217Z,11.44
2023-05-02T18:24:42.165Z,11.40
2023-05-02T18:27:12.659Z,11.38
2023-05-02T18:29:42.176Z,11.30
2023-05-02T18:32:11.267Z,11.39
2023-05-02T18:34:40.761Z,11.39
2023-05-02T18:37:10.271Z,11.35
2023-05-02T18:39:39.672Z,11.32
2023-05-02T18:46:22.501Z,11.28
2023-05-02T18:48:51.799Z,11.18
2023-05-02T18:55:40.070Z,11.11
2023-05-02T18:58:09.367Z,11.07
2023-05-02T19:05:04.926Z,11.05
2023-05-02T19:11:54.505Z,10.98
2023-05-02T19:14:23.905Z,11.02
2023-05-02T19:21:14.139Z,10.83
2023-05-02T19:23:44.963Z,10.85
2023-05-02T19:30:27.816Z,10.78
2023-05-02T19:37:22.624Z,10.94
2023-05-02T19:39:52.020Z,10.91
2023-05-02T19:46:41.070Z,10.93
2023-05-02T19:49:10.099Z,11.04
2023-05-02T19:51:39.301Z,10.69
2023-05-02T19:54:10.234Z,10.64
2023-05-02T19:56:39.433Z,10.74
2023-05-02T19:59:08.627Z,10.71
2023-05-02T20:01:37.861Z,10.96
2023-05-02T20:04:07.105Z,10.59
2023-05-02T20:06:36.764Z,10.68
2023-05-02T20:09:06.029Z,10.76
2023-05-02T20:11:36.766Z,10.80
2023-05-02T20:14:05.961Z,10.69
2023-05-02T20:16:36.264Z,10.57
2023-05-02T20:19:05.392Z,10.73
2023-05-02T20:21:34.768Z,10.74
2023-05-02T20:24:07.459Z,10.76
2023-05-02T20:26:38.615Z,10.86
2023-05-02T20:33:33.522Z,10.83
2023-05-02T20:36:06.811Z,10.71
2023-05-02T20:42:55.586Z,10.63
2023-05-02T20:45:25.297Z,10.57
2023-05-02T20:52:19.511Z,10.61
2023-05-02T20:54:49.416Z,10.61
2023-05-02T20:57:18.511Z,10.55
2023-05-02T20:59:49.344Z,10.42
2023-05-02T21:02:18.443Z,10.55
2023-05-02T21:13:50.256Z,10.52
2023-05-02T21:16:22.416Z,10.48
2023-05-02T21:23:11.425Z,10.31
2023-05-02T21:25:40.707Z,10.30
2023-05-02T21:28:10.309Z,10.32
2023-05-02T21:30:39.610Z,10.26
2023-05-02T21:33:10.582Z,10.21
2023-05-02T21:35:40.355Z,10.15
2023-05-02T21:38:09.660Z,10.05
2023-05-02T21:40:39.567Z,10.01
2023-05-02T21:43:12.864Z,10.15
2023-05-02T21:50:04.629Z,10.09
2023-05-02T21:52:33.907Z,10.10
2023-05-02T21:59:21.967Z,9.92
2023-05-02T22:01:51.947Z,9.97
2023-05-02T22:08:42.856Z,9.83
2023-05-02T22:11:12.238Z,9.92
2023-05-02T22:13:41.414Z,9.97
2023-05-02T22:16:10.864Z,9.82
2023-05-02T22:18:40.333Z,9.92
2023-05-02T22:25:23.872Z,9.98
2023-05-02T22:27:53.077Z,10.06
2023-05-02T22:34:29.156Z,10.24
2023-05-02T22:36:58.560Z,10.27
2023-05-02T22:42:30.640Z,10.06
2023-05-02T22:49:20.136Z,10.00
2023-05-02T22:51:50.972Z,9.93
2023-05-02T22:54:22.761Z,9.94
2023-05-02T22:56:52.547Z,9.92
2023-05-02T22:59:23.586Z,9.95
2023-05-02T23:01:52.904Z,9.95
2023-05-02T23:04:21.971Z,9.94
2023-05-02T23:06:51.197Z,9.87
2023-05-02T23:09:20.462Z,9.87
2023-05-02T23:11:49.762Z,9.91
2023-05-02T23:14:21.012Z,9.87
2023-05-02T23:21:05.795Z,9.78
2023-05-02T23:23:35.506Z,9.81
2023-05-02T23:30:23.579Z,9.77
2023-05-02T23:32:52.982Z,9.77
2023-05-02T23:35:22.563Z,9.84
2023-05-02T23:37:53.509Z,9.86
2023-05-02T23:40:22.500Z,9.72
2023-05-02T23:42:51.827Z,9.70
2023-05-02T23:45:21.609Z,9.63
2023-05-02T23:47:50.954Z,9.72
2023-05-02T23:50:20.189Z,9.60
2023-05-02T23:57:03.762Z,9.62
2023-05-02T23:59:33.064Z,9.59
